Time;durP1;ratioP1;P1;durP2;ratioP2;P2;SDS_P1;SDS_P2;PMS_P1;PMS_P2;Temp;Humidity;BMP_temperature;BMP_pressure;BME280_temperature;BME280_humidity;BME280_pressure;Samples;Min_cycle;Max_cycle;Signal;HPM_P1;HPM_P2
2023/06/23 00:00:20;;;;;;;8.20;6.70;;;;;;;22.10;100.00;99620.60;104307;1254;62313;-65
2023/06/23 00:02:51;;;;;;;7.80;6.70;;;;;;;22.10;100.00;99616.05;104438;1254;60629;-65
2023/06/23 00:05:19;;;;;;;8.80;7.50;;;;;;;22.07;100.00;99614.41;104460;1253;73512;-65
2023/06/23 00:07:47;;;;;;;8.50;7.40;;;;;;;22.02;100.00;99610.59;104504;1252;68485;-65
2023/06/23 00:10:15;;;;;;;8.00;7.30;;;;;;;21.98;100.00;99607.58;104361;1270;72413;-66
2023/06/23 00:12:42;;;;;;;8.40;7.20;;;;;;;21.95;100.00;99604.74;104304;1270;61443;-65
2023/06/23 00:15:12;;;;;;;7.40;6.60;;;;;;;21.96;100.00;99605.95;104516;1253;60575;-65
2023/06/23 00:17:41;;;;;;;8.70;6.70;;;;;;;21.94;100.00;99603.08;104443;1259;73570;-65
2023/06/23 00:20:13;;;;;;;9.20;6.80;;;;;;;21.88;100.00;99602.20;104568;1257;69540;-65
2023/06/23 00:22:42;;;;;;;7.70;7.00;;;;;;;21.83;100.00;99599.86;104393;1254;72901;-66
2023/06/23 00:25:10;;;;;;;7.20;6.60;;;;;;;21.78;100.00;99596.16;104247;1260;62068;-65
2023/06/23 00:27:38;;;;;;;9.90;7.30;;;;;;;21.78;100.00;99595.41;104514;1253;60611;-65
2023/06/23 00:30:07;;;;;;;7.90;6.90;;;;;;;21.76;100.00;99597.23;104542;1260;73673;-66
2023/06/23 00:32:34;;;;;;;8.70;8.00;;;;;;;21.70;100.00;99593.65;104338;1251;69303;-65
2023/06/23 00:35:03;;;;;;;10.50;7.50;;;;;;;21.66;100.00;99591.13;104537;1257;72230;-65
2023/06/23 00:37:31;;;;;;;9.30;7.80;;;;;;;21.62;100.00;99593.09;104472;1254;61672;-65
2023/06/23 00:39:58;;;;;;;8.40;6.70;;;;;;;21.64;100.00;99589.20;104297;1252;60619;-65
2023/06/23 00:42:26;;;;;;;;;;;;;;;21.63;100.00;99587.83;104453;1251;73602;-65
2023/06/23 00:44:54;;;;;;;9.10;7.20;;;;;;;21.60;100.00;99587.07;104532;1251;70612;-67
2023/06/23 00:47:22;;;;;;;8.10;7.30;;;;;;;21.57;100.00;99586.95;104670;1251;72926;-66
2023/06/23 00:49:50;;;;;;;8.90;7.20;;;;;;;21.56;100.00;99585.15;104719;1254;61709;-66
2023/06/23 00:52:17;;;;;;;;;;;;;;;21.58;100.00;99587.06;104611;1257;60415;-65
2023/06/23 00:54:45;;;;;;;;;;;;;;;21.59;100.00;99585.17;104844;1251;73766;-66
2023/06/23 00:57:13;;;;;;;8.60;7.70;;;;;;;21.53;100.00;99588.74;104439;1270;69141;-68
2023/06/23 00:59:40;;;;;;;;;;;;;;;21.45;100.00;99587.19;104401;1257;73609;-65
2023/06/23 01:02:08;;;;;;;13.40;7.40;;;;;;;21.37;100.00;99586.91;104412;1251;61489;-65
2023/06/23 01:04:36;;;;;;;;;;;;;;;21.37;100.00;99587.68;104471;1251;60453;-66
2023/06/23 01:07:26;;;;;;;9.00;7.90;;;;;;;21.37;100.00;99587.25;104557;1254;73687;-65
2023/06/23 01:10:12;;;;;;;8.40;7.70;;;;;;;21.33;100.00;99588.92;104460;1257;70159;-65
2023/06/23 01:12:59;;;;;;;8.80;8.00;;;;;;;21.30;100.00;99586.65;104356;1264;73337;-65
2023/06/23 01:15:30;;;;;;;10.00;8.10;;;;;;;21.31;100.00;99586.60;104388;1257;61388;-66
2023/06/23 01:18:05;;;;;;;8.40;7.40;;;;;;;21.36;100.00;99587.36;104502;1254;60587;-68
2023/06/23 01:20:35;;;;;;;8.60;7.80;;;;;;;21.37;100.00;99588.20;108345;1251;73573;-67
2023/06/23 01:23:14;;;;;;;10.70;8.00;;;;;;;21.34;100.00;99588.05;105616;1251;69691;-67
2023/06/23 01:25:57;;;;;;;10.50;7.40;;;;;;;21.33;100.00;99587.13;104405;1265;72969;-66
2023/06/23 01:28:44;;;;;;;10.60;8.20;;;;;;;21.39;100.00;99590.83;104816;1252;61716;-66
2023/06/23 01:31:14;;;;;;;11.70;8.10;;;;;;;21.45;100.00;99588.77;104682;1252;60744;-66
2023/06/23 01:33:48;;;;;;;10.80;8.60;;;;;;;21.46;100.00;99590.50;104422;1257;73909;-66
2023/06/23 01:36:25;;;;;;;11.70;9.00;;;;;;;21.45;100.00;99593.42;104410;1256;68609;-67
2023/06/23 01:38:56;;;;;;;13.10;8.60;;;;;;;21.41;100.00;99592.66;104276;1264;72335;-66
2023/06/23 01:41:26;;;;;;;9.00;8.10;;;;;;;21.46;100.00;99592.27;104307;1257;60650;-67
2023/06/23 01:43:55;;;;;;;8.30;7.50;;;;;;;21.46;100.00;99597.75;108339;1251;60117;-67
2023/06/23 01:46:26;;;;;;;9.00;8.00;;;;;;;21.44;100.00;99600.66;106044;1257;73687;-67
2023/06/23 01:48:56;;;;;;;10.30;8.00;;;;;;;21.40;100.00;99602.71;104436;1257;68174;-67
2023/06/23 01:51:27;;;;;;;9.50;7.40;;;;;;;21.37;100.00;99601.52;104739;1259;72754;-65
2023/06/23 01:53:55;;;;;;;8.20;7.50;;;;;;;21.39;100.00;99601.77;104479;1257;60636;-67
2023/06/23 01:56:23;;;;;;;11.70;8.30;;;;;;;21.34;100.00;99598.02;104539;1256;60562;-67
2023/06/23 01:58:51;;;;;;;9.40;8.30;;;;;;;21.32;100.00;99605.90;104388;1258;73619;-67
2023/06/23 02:01:19;;;;;;;;;;;;;;;21.30;100.00;99606.43;104460;1258;68329;-66
2023/06/23 02:03:47;;;;;;;9.50;8.60;;;;;;;21.32;100.00;99609.67;104490;1254;72924;-66
2023/06/23 02:06:16;;;;;;;9.30;8.40;;;;;;;21.29;100.00;99614.79;104516;1251;60526;-67
2023/06/23 02:08:44;;;;;;;;;;;;;;;21.27;100.00;99614.42;104304;1256;60635;-69
2023/06/23 02:11:11;;;;;;;9.40;8.40;;;;;;;21.22;100.00;99611.24;104456;1251;72631;-66
2023/06/23 02:13:39;;;;;;;9.40;8.50;;;;;;;21.24;100.00;99611.80;104442;1270;69260;-68
2023/06/23 02:16:08;;;;;;;10.00;9.10;;;;;;;21.34;100.00;99612.48;104525;1254;72303;-66
2023/06/23 02:18:36;;;;;;;10.20;9.10;;;;;;;21.38;100.00;99614.12;104354;1257;60558;-65
2023/06/23 02:21:04;;;;;;;11.90;9.60;;;;;;;21.36;100.00;99611.60;104440;1251;62148;-65
2023/06/23 02:23:33;;;;;;;14.30;9.60;;;;;;;21.40;100.00;99611.48;104348;1272;73756;-65
2023/06/23 02:26:00;;;;;;;10.00;8.70;;;;;;;21.48;100.00;99607.98;104397;1269;69297;-65
2023/06/23 02:28:28;;;;;;;10.30;9.40;;;;;;;21.54;100.00;99605.47;104429;1251;72336;-66
2023/06/23 02:30:56;;;;;;;9.60;8.70;;;;;;;21.50;100.00;99606.80;104375;1254;60650;-66
2023/06/23 02:33:23;;;;;;;;;;;;;;;21.43;100.00;99611.77;104408;1257;60539;-63
2023/06/23 02:35:51;;;;;;;9.10;8.30;;;;;;;21.39;100.00;99609.07;104488;1267;73733;-66
2023/06/23 02:38:21;;;;;;;14.80;8.10;;;;;;;21.46;100.00;99608.30;104281;1251;69325;-65
2023/06/23 02:40:51;;;;;;;10.20;8.90;;;;;;;21.51;100.00;99607.63;104514;1258;72470;-65
2023/06/23 02:43:27;;;;;;;;;;;;;;;21.53;100.00;99605.73;104435;1260;60565;-66
2023/06/23 02:45:57;;;;;;;10.10;9.00;;;;;;;21.49;100.00;99607.09;107544;1253;60118;-64
2023/06/23 02:48:30;;;;;;;10.70;8.50;;;;;;;21.52;100.00;99605.92;104504;1254;72662;-65
2023/06/23 02:50:58;;;;;;;10.40;8.90;;;;;;;21.58;100.00;99606.99;104396;1270;70092;-66
2023/06/23 02:53:27;;;;;;;;;;;;;;;21.64;100.00;99606.84;104665;1258;72422;-66
2023/06/23 02:56:03;;;;;;;9.90;8.40;;;;;;;21.65;100.00;99609.59;104446;1254;60453;-67
2023/06/23 02:58:31;;;;;;;11.80;9.10;;;;;;;21.63;100.00;99610.56;104342;1257;60431;-66
2023/06/23 03:01:01;;;;;;;10.00;9.00;;;;;;;21.62;100.00;99608.50;104430;1253;74060;-66
2023/06/23 03:03:29;;;;;;;10.20;8.80;;;;;;;21.66;100.00;99609.71;104335;1251;69181;-67
2023/06/23 03:05:57;;;;;;;10.80;9.60;;;;;;;21.71;100.00;99600.69;104501;1269;72743;-65
2023/06/23 03:08:25;;;;;;;11.40;9.00;;;;;;;21.70;100.00;99599.21;104363;1257;60561;-65
2023/06/23 03:10:54;;;;;;;;;;;;;;;21.70;100.00;99595.44;104356;1254;60559;-68
2023/06/23 03:13:22;;;;;;;12.00;8.70;;;;;;;21.69;100.00;99592.66;104273;1256;74069;-65
2023/06/23 03:15:54;;;;;;;9.70;8.60;;;;;;;21.71;100.00;99593.77;104474;1256;69129;-64
2023/06/23 03:18:22;;;;;;;9.80;8.90;;;;;;;21.78;100.00;99590.95;106692;1254;72891;-64
2023/06/23 03:20:50;;;;;;;11.60;9.60;;;;;;;21.78;100.00;99586.67;104659;1253;60707;-64
2023/06/23 03:23:19;;;;;;;13.40;9.80;;;;;;;21.83;100.00;99588.93;108423;1251;60685;-64
2023/06/23 03:25:47;;;;;;;10.70;8.90;;;;;;;21.85;100.00;99588.25;105766;1257;74275;-64
2023/06/23 03:28:26;;;;;;;10.90;9.60;;;;;;;21.90;100.00;99589.34;104511;1272;68443;-64
2023/06/23 03:31:00;;;;;;;11.50;10.00;;;;;;;22.01;100.00;99584.83;104947;1257;72413;-64
2023/06/23 03:33:34;;;;;;;13.40;10.30;;;;;;;22.07;100.00;99582.63;104647;1256;60470;-64
2023/06/23 03:36:06;;;;;;;12.60;9.90;;;;;;;22.11;100.00;99581.20;104690;1251;60443;-64
2023/06/23 03:38:42;;;;;;;11.50;9.20;;;;;;;22.14;100.00;99575.90;104597;1257;73577;-64
2023/06/23 03:41:10;;;;;;;12.30;9.80;;;;;;;22.31;100.00;99573.12;104332;1258;70075;-64
2023/06/23 03:43:44;;;;;;;13.50;9.80;;;;;;;22.43;100.00;99571.98;105833;1251;73282;-66
2023/06/23 03:46:14;;;;;;;16.00;10.30;;;;;;;22.45;100.00;99568.95;108162;1251;60546;-65
2023/06/23 03:48:42;;;;;;;10.90;9.80;;;;;;;22.53;100.00;99570.02;104685;1254;60498;-65
2023/06/23 03:51:10;;;;;;;10.10;9.10;;;;;;;22.61;100.00;99565.05;104474;1251;351120;-65
2023/06/23 03:54:32;;;;;;;13.60;10.00;;;;;;;22.46;100.00;99564.03;101507;1295;601293;-64
2023/06/23 03:57:01;;;;;;;10.70;9.70;;;;;;;22.86;100.00;99566.91;103348;1273;59656;-64
2023/06/23 03:59:29;;;;;;;10.30;9.30;;;;;;;22.99;100.00;99564.09;103610;1265;60097;-64
2023/06/23 04:01:57;;;;;;;12.00;10.10;;;;;;;23.03;100.00;99562.29;103343;1274;72958;-64
2023/06/23 04:04:25;;;;;;;12.10;10.00;;;;;;;23.05;100.00;99558.98;103348;1286;69332;-64
2023/06/23 04:06:53;;;;;;;11.00;9.60;;;;;;;23.20;100.00;99565.07;103504;1272;72933;-63
2023/06/23 04:09:21;;;;;;;;;;;;;;;23.35;100.00;99558.25;103690;1264;162980;-64
2023/06/23 04:11:49;;;;;;;10.50;9.50;;;;;;;23.36;100.00;99558.92;103766;1280;61597;-64
2023/06/23 04:14:16;;;;;;;11.50;10.50;;;;;;;23.44;100.00;99554.92;103797;1267;71949;-63
2023/06/23 04:16:44;;;;;;;13.60;10.70;;;;;;;23.50;100.00;99554.49;104050;1263;68109;-65
2023/06/23 04:19:12;;;;;;;13.00;9.90;;;;;;;23.61;100.00;99548.00;104074;1279;72973;-65
2023/06/23 04:21:40;;;;;;;15.40;10.20;;;;;;;23.73;100.00;99550.15;103928;1264;59956;-65
2023/06/23 04:24:09;;;;;;;12.30;10.90;;;;;;;23.77;100.00;99552.89;104190;1267;59737;-65
2023/06/23 04:26:37;;;;;;;10.70;9.80;;;;;;;23.84;100.00;99553.17;103974;1274;73134;-65
2023/06/23 04:29:05;;;;;;;11.50;9.90;;;;;;;23.93;100.00;99553.27;104352;1257;68302;-63
2023/06/23 04:31:34;;;;;;;13.90;10.10;;;;;;;24.08;100.00;99561.97;104441;1266;72973;-65
2023/06/23 04:34:02;;;;;;;12.60;10.70;;;;;;;24.20;100.00;99560.45;104400;1259;59777;-65
2023/06/23 04:36:32;;;;;;;;;;;;;;;24.25;100.00;99566.77;108572;1252;60075;-65
2023/06/23 04:39:04;;;;;;;11.30;10.20;;;;;;;24.25;100.00;99566.36;108395;1253;73394;-65
2023/06/23 04:41:31;;;;;;;10.40;9.00;;;;;;;24.39;100.00;99567.98;108050;1251;68350;-66
2023/06/23 04:43:59;;;;;;;12.10;10.50;;;;;;;24.52;100.00;99567.72;108389;1254;72827;-67
2023/06/23 04:46:28;;;;;;;11.90;9.90;;;;;;;24.66;100.00;99561.18;108378;1251;60770;-66
2023/06/23 04:48:59;;;;;;;10.50;9.60;;;;;;;24.76;100.00;99566.79;108125;1252;60993;-69
2023/06/23 04:51:29;;;;;;;12.00;9.90;;;;;;;24.73;100.00;99566.33;108432;1251;71939;-69
2023/06/23 04:53:59;;;;;;;10.80;9.70;;;;;;;24.82;100.00;99563.66;108358;1251;69335;-66
2023/06/23 04:56:31;;;;;;;14.60;9.60;;;;;;;24.92;100.00;99561.92;108360;1251;72464;-62
2023/06/23 04:59:00;;;;;;;14.10;10.10;;;;;;;25.09;100.00;99559.92;108264;1253;61396;-63
2023/06/23 05:01:28;;;;;;;10.10;9.00;;;;;;;25.24;100.00;99559.46;108503;1251;60114;-64
2023/06/23 05:03:55;;;;;;;10.80;9.60;;;;;;;25.33;100.00;99556.70;108626;1251;72956;-63
2023/06/23 05:06:23;;;;;;;16.50;10.90;;;;;;;25.38;100.00;99550.78;108359;1252;69164;-64
2023/06/23 05:08:51;;;;;;;11.60;10.30;;;;;;;25.40;100.00;99551.07;108459;1254;71588;-62
2023/06/23 05:11:18;;;;;;;;;;;;;;;25.43;100.00;99551.85;108285;1254;59774;-65
2023/06/23 05:13:46;;;;;;;14.50;9.50;;;;;;;25.54;100.00;99551.84;108542;1251;59431;-64
2023/06/23 05:16:14;;;;;;;10.80;9.50;;;;;;;25.59;100.00;99555.92;108262;1251;72877;-62
2023/06/23 05:18:42;;;;;;;11.00;9.90;;;;;;;25.71;100.00;99561.44;108286;1251;69297;-64
2023/06/23 05:21:10;;;;;;;16.10;10.10;;;;;;;25.89;100.00;99557.23;108115;1251;72349;-67
2023/06/23 05:23:40;;;;;;;17.50;9.40;;;;;;;25.95;100.00;99555.48;108209;1252;60254;-62
2023/06/23 05:26:11;;;;;;;10.90;9.90;;;;;;;25.98;100.00;99556.64;108072;1252;59685;-62
2023/06/23 05:28:39;;;;;;;11.40;10.10;;;;;;;26.06;100.00;99555.80;108293;1251;71891;-65
2023/06/23 05:31:07;;;;;;;;;;;;;;;26.14;100.00;99556.80;108071;1251;69350;-62
2023/06/23 05:33:36;;;;;;;9.70;8.90;;;;;;;26.17;100.00;99555.42;108355;1254;72362;-62
2023/06/23 05:36:04;;;;;;;9.80;8.80;;;;;;;26.31;100.00;99551.59;108390;1252;59776;-63
2023/06/23 05:38:32;;;;;;;11.60;8.90;;;;;;;26.35;100.00;99549.17;107954;1256;59764;-63
2023/06/23 05:40:59;;;;;;;17.20;9.80;;;;;;;26.44;100.00;99546.16;108130;1252;73025;-63
2023/06/23 05:43:27;;;;;;;12.20;9.50;;;;;;;26.56;100.00;99549.58;108327;1251;69946;-62
2023/06/23 05:45:55;;;;;;;10.40;9.40;;;;;;;26.65;100.00;99547.31;108293;1254;72456;-63
2023/06/23 05:48:27;;;;;;;17.60;9.90;;;;;;;26.78;100.00;99549.65;107873;1257;60142;-63
2023/06/23 05:50:55;;;;;;;13.50;9.40;;;;;;;26.87;100.00;99548.98;108276;1251;59683;-63
2023/06/23 05:53:24;;;;;;;18.90;10.70;;;;;;;26.91;100.00;99548.13;108099;1251;72904;-62
2023/06/23 05:56:00;;;;;;;11.80;8.50;;;;;;;26.97;100.00;99546.71;108186;1251;69247;-62
2023/06/23 05:58:33;;;;;;;12.20;9.70;;;;;;;27.02;100.00;99549.66;108071;1253;73383;-63
2023/06/23 06:01:02;;;;;;;16.20;9.90;;;;;;;27.08;100.00;99548.33;108218;1254;60373;-63
2023/06/23 06:03:35;;;;;;;14.90;10.30;;;;;;;27.15;100.00;99549.52;108361;1251;60763;-63
2023/06/23 06:06:04;;;;;;;10.90;9.80;;;;;;;27.20;100.00;99548.04;108216;1252;72787;-64
2023/06/23 06:08:32;;;;;;;10.60;8.90;;;;;;;27.27;100.00;99548.94;108414;1254;69024;-64
2023/06/23 06:11:00;;;;;;;9.50;8.60;;;;;;;27.36;100.00;99549.71;108091;1252;72516;-63
2023/06/23 06:13:28;;;;;;;;;;;;;;;27.42;100.00;99540.58;108401;1254;59724;-64
2023/06/23 06:15:56;;;;;;;10.90;8.90;;;;;;;27.51;100.00;99534.98;108562;1253;59472;-63
2023/06/23 06:18:24;;;;;;;12.60;10.10;;;;;;;27.58;100.00;99533.70;108494;1251;72901;-64
2023/06/23 06:20:51;;;;;;;18.10;11.50;;;;;;;27.65;100.00;99530.88;108379;1251;69589;-64
2023/06/23 06:23:20;;;;;;;16.90;10.20;;;;;;;27.67;100.00;99528.42;108522;1254;71568;-63
2023/06/23 06:25:52;;;;;;;14.20;10.00;;;;;;;27.78;100.00;99530.86;108458;1251;59815;-64
2023/06/23 06:28:20;;;;;;;11.20;9.90;;;;;;;27.83;100.00;99530.97;108350;1251;59813;-63
2023/06/23 06:30:48;;;;;;;10.90;9.80;;;;;;;27.94;100.00;99527.39;108331;1251;73263;-63
2023/06/23 06:33:16;;;;;;;11.40;10.30;;;;;;;28.03;100.00;99528.23;108325;1252;68821;-63
2023/06/23 06:35:43;;;;;;;10.50;9.70;;;;;;;28.12;100.00;99525.80;108327;1251;72536;-63
2023/06/23 06:38:11;;;;;;;11.40;10.20;;;;;;;28.20;100.00;99519.61;108144;1257;60783;-63
2023/06/23 06:40:39;;;;;;;19.80;11.20;;;;;;;28.23;100.00;99516.34;108249;1251;59869;-64
2023/06/23 06:43:06;;;;;;;12.30;11.00;;;;;;;28.31;100.00;99512.55;108440;1251;72798;-62
2023/06/23 06:45:34;;;;;;;12.00;10.70;;;;;;;28.34;100.00;99513.19;108118;1251;69234;-63
2023/06/23 06:48:03;;;;;;;11.00;10.10;;;;;;;28.40;100.00;99507.90;108253;1254;72445;-63
2023/06/23 06:50:32;;;;;;;18.50;12.10;;;;;;;28.45;100.00;99511.56;107926;1254;59741;-66
2023/06/23 06:53:00;;;;;;;11.00;10.00;;;;;;;28.48;100.00;99509.36;108036;1254;59802;-64
2023/06/23 06:55:28;;;;;;;11.10;10.10;;;;;;;28.55;100.00;99506.45;108304;1254;73319;-62
2023/06/23 06:57:56;;;;;;;13.30;10.40;;;;;;;28.62;100.00;99504.94;108130;1253;69610;-62
2023/06/23 07:00:25;;;;;;;;;;;;;;;28.67;100.00;99504.59;108044;1253;72804;-64
2023/06/23 07:02:56;;;;;;;10.90;9.90;;;;;;;28.70;100.00;99504.18;108442;1253;59779;-63
2023/06/23 07:05:24;;;;;;;10.80;10.00;;;;;;;28.75;100.00;99505.49;108006;1254;58739;-63
2023/06/23 07:07:52;;;;;;;11.00;10.00;;;;;;;28.82;100.00;99502.05;108510;1252;73244;-63
2023/06/23 07:10:20;;;;;;;11.40;9.90;;;;;;;28.88;100.00;99503.76;108408;1253;69335;-63
2023/06/23 07:12:48;;;;;;;11.50;10.60;;;;;;;28.93;100.00;99502.13;108418;1253;72370;-62
2023/06/23 07:15:15;;;;;;;12.80;11.30;;;;;;;29.03;100.00;99501.46;108516;1254;59891;-62
2023/06/23 07:17:43;;;;;;;;;;;;;;;29.12;100.00;99494.05;108526;1253;59689;-62
2023/06/23 07:20:11;;;;;;;10.60;9.70;;;;;;;29.17;100.00;99484.80;108508;1253;72835;-62
2023/06/23 07:22:39;;;;;;;10.60;9.60;;;;;;;29.17;100.00;99485.40;108416;1253;69113;-64
2023/06/23 07:25:07;;;;;;;16.60;10.00;;;;;;;29.20;99.99;99481.45;108218;1254;72232;-62
2023/06/23 07:27:35;;;;;;;10.80;9.90;;;;;;;29.25;99.92;99483.09;108445;1253;60289;-64
2023/06/23 07:30:03;;;;;;;;;;;;;;;29.27;98.83;99487.20;108123;1253;60136;-61
2023/06/23 07:32:31;;;;;;;9.80;8.80;;;;;;;29.31;100.00;99485.92;108352;1252;73719;-62
2023/06/23 07:34:58;;;;;;;10.40;9.50;;;;;;;29.36;99.50;99487.05;108346;1252;69396;-63
2023/06/23 07:37:26;;;;;;;10.50;9.50;;;;;;;29.39;99.89;99483.55;108252;1254;72395;-62
2023/06/23 07:39:54;;;;;;;;;;;;;;;29.49;98.30;99480.20;108443;1253;60233;-64
2023/06/23 07:42:21;;;;;;;11.40;9.50;;;;;;;29.52;97.40;99481.98;108419;1252;59592;-63
2023/06/23 07:44:49;;;;;;;;;;;;;;;29.51;98.35;99478.95;108375;1253;73530;-63
2023/06/23 07:47:17;;;;;;;11.90;9.20;;;;;;;29.48;98.22;99478.23;108394;1253;69054;-64
2023/06/23 07:49:45;;;;;;;10.50;9.50;;;;;;;29.56;99.48;99484.30;108429;1253;72420;-64
2023/06/23 07:52:12;;;;;;;;;;;;;;;29.64;98.41;99478.21;108465;1253;60717;-63
2023/06/23 07:54:40;;;;;;;;;;;;;;;29.74;95.49;99473.65;108436;1251;59959;-64
2023/06/23 07:57:08;;;;;;;10.10;9.40;;;;;;;29.77;97.49;99469.78;108505;1251;73702;-63
2023/06/23 07:59:36;;;;;;;12.50;9.00;;;;;;;29.78;94.06;99467.66;108547;1251;69602;-64
2023/06/23 08:02:04;;;;;;;10.40;9.40;;;;;;;29.87;96.46;99467.45;108438;1251;72156;-65
2023/06/23 08:04:31;;;;;;;14.20;9.80;;;;;;;29.95;98.52;99466.23;108464;1251;60183;-66
2023/06/23 08:06:59;;;;;;;9.90;8.90;;;;;;;30.00;98.24;99463.67;108438;1251;59831;-66
2023/06/23 08:09:27;;;;;;;;;;;;;;;30.01;96.39;99459.61;108460;1251;74026;-63
2023/06/23 08:11:55;;;;;;;9.30;8.40;;;;;;;30.03;97.58;99463.16;108371;1251;69600;-65
2023/06/23 08:14:23;;;;;;;10.10;8.40;;;;;;;30.07;96.47;99455.73;108399;1251;71513;-66
2023/06/23 08:16:50;;;;;;;23.70;10.40;;;;;;;30.17;97.08;99451.35;108424;1251;59815;-66
2023/06/23 08:19:21;;;;;;;9.70;8.70;;;;;;;30.28;97.81;99445.91;108507;1253;59730;-65
2023/06/23 08:21:49;;;;;;;8.40;7.80;;;;;;;30.42;94.78;99438.90;108425;1251;74551;-65
2023/06/23 08:24:17;;;;;;;9.40;8.50;;;;;;;30.56;89.86;99443.10;108431;1253;69248;-65
2023/06/23 08:29:47;;;;;;;9.40;8.60;;;;;;;30.80;86.79;99448.60;102411;1283;601039;-70
2023/06/23 08:32:16;;;;;;;9.60;8.80;;;;;;;30.82;81.98;99446.74;104301;1267;61710;-66
2023/06/23 08:34:44;;;;;;;8.90;8.20;;;;;;;30.89;77.69;99446.73;103841;1266;59662;-65
2023/06/23 08:37:12;;;;;;;8.70;7.80;;;;;;;30.91;77.92;99441.36;103890;1265;72037;-64
2023/06/23 08:39:39;;;;;;;8.80;8.10;;;;;;;30.78;73.27;99436.36;104018;1269;69424;-66
2023/06/23 08:42:07;;;;;;;;;;;;;;;30.74;74.31;99438.64;104064;1267;72496;-64
2023/06/23 08:44:35;;;;;;;9.30;8.20;;;;;;;30.69;78.13;99440.79;103849;1266;164940;-65
2023/06/23 08:47:05;;;;;;;7.90;7.40;;;;;;;30.69;77.38;99440.67;107442;1260;59855;-63
2023/06/23 08:49:36;;;;;;;8.00;7.40;;;;;;;30.81;77.83;99438.59;106293;1263;70873;-64
2023/06/23 08:52:05;;;;;;;8.30;7.50;;;;;;;30.90;77.51;99434.52;104610;1266;69815;-64
2023/06/23 08:54:32;;;;;;;8.20;7.60;;;;;;;30.89;74.98;99429.20;104562;1265;72818;-65
2023/06/23 08:57:00;;;;;;;8.60;7.70;;;;;;;30.95;74.67;99424.90;104003;1270;59637;-66
2023/06/23 08:59:28;;;;;;;8.70;7.90;;;;;;;30.97;74.39;99417.93;104099;1266;60716;-64
2023/06/23 09:01:56;;;;;;;8.20;7.60;;;;;;;31.03;78.97;99417.23;104266;1260;72762;-63
2023/06/23 09:04:24;;;;;;;8.50;7.70;;;;;;;31.11;74.93;99418.11;104307;1264;68617;-63
2023/06/23 09:06:52;;;;;;;9.00;7.60;;;;;;;31.19;74.69;99418.12;103936;1260;72903;-63
2023/06/23 09:09:20;;;;;;;8.10;7.50;;;;;;;31.23;71.35;99413.87;104041;1260;59794;-63
2023/06/23 09:11:48;;;;;;;8.50;7.20;;;;;;;31.27;72.57;99413.09;104051;1262;60984;-64
2023/06/23 09:14:15;;;;;;;7.60;6.90;;;;;;;31.36;72.68;99409.55;104025;1261;73810;-64
2023/06/23 09:16:44;;;;;;;7.80;7.20;;;;;;;31.44;69.05;99405.71;104253;1268;68105;-66
2023/06/23 09:19:11;;;;;;;7.40;6.80;;;;;;;31.41;58.39;99406.58;104155;1266;72880;-63
2023/06/23 09:21:40;;;;;;;7.60;7.00;;;;;;;31.48;59.54;99404.10;103764;1266;60175;-65
2023/06/23 09:24:08;;;;;;;7.70;7.10;;;;;;;31.54;62.55;99400.06;104302;1266;59775;-63
2023/06/23 09:26:48;;;;;;;;;;;;;;;31.62;63.10;99397.36;103924;1270;72743;-65
2023/06/23 09:29:23;;;;;;;7.50;6.90;;;;;;;31.66;63.03;99391.16;103919;1264;69044;-63
2023/06/23 09:31:52;;;;;;;7.90;7.20;;;;;;;31.71;61.65;99387.86;106916;1260;72520;-63
2023/06/23 09:34:25;;;;;;;6.50;6.00;;;;;;;31.76;61.29;99385.61;107585;1259;59820;-64
2023/06/23 09:36:54;;;;;;;13.70;7.00;;;;;;;31.78;59.21;99386.98;105175;1257;59818;-63
2023/06/23 09:39:23;;;;;;;7.70;7.20;;;;;;;31.74;60.25;99385.44;104963;1254;72919;-63
2023/06/23 09:41:58;;;;;;;8.60;7.20;;;;;;;31.69;61.64;99386.98;104696;1259;69212;-62
2023/06/23 09:44:36;;;;;;;7.70;7.10;;;;;;;31.76;62.71;99388.40;104538;1260;71795;-62
2023/06/23 09:47:04;;;;;;;7.70;6.90;;;;;;;31.77;60.83;99389.66;104275;1257;59820;-62
2023/06/23 09:49:46;;;;;;;7.90;7.20;;;;;;;31.75;59.78;99392.21;104483;1257;59724;-64
2023/06/23 09:52:21;;;;;;;6.80;6.30;;;;;;;31.75;60.56;99386.31;104378;1258;72783;-63
2023/06/23 09:54:49;;;;;;;7.30;6.60;;;;;;;31.83;60.89;99386.22;104537;1260;69511;-62
2023/06/23 09:57:19;;;;;;;6.40;6.00;;;;;;;31.97;57.76;99378.85;104572;1260;72324;-61
2023/06/23 09:59:50;;;;;;;6.70;6.10;;;;;;;32.08;56.37;99374.84;104715;1254;59751;-62
2023/06/23 10:02:25;;;;;;;7.20;6.50;;;;;;;32.12;53.06;99372.91;104592;1254;60089;-62
2023/06/23 10:05:04;;;;;;;7.70;6.50;;;;;;;32.11;52.70;99373.42;104222;1254;72769;-62
2023/06/23 10:07:32;;;;;;;7.00;6.40;;;;;;;32.17;53.02;99369.64;104516;1260;70132;-62
2023/06/23 10:10:04;;;;;;;7.50;6.90;;;;;;;32.22;52.62;99368.04;104494;1254;72844;-61
2023/06/23 10:12:48;;;;;;;6.60;6.10;;;;;;;32.16;51.76;99369.55;104422;1255;59876;-61
2023/06/23 10:15:17;;;;;;;7.10;6.60;;;;;;;32.21;51.96;99368.09;104517;1262;59663;-62
2023/06/23 10:17:44;;;;;;;7.00;6.50;;;;;;;32.25;51.40;99369.23;104347;1260;72881;-65
2023/06/23 10:20:12;;;;;;;7.60;7.00;;;;;;;32.31;52.29;99372.11;104326;1269;69947;-62
2023/06/23 10:22:40;;;;;;;7.40;6.80;;;;;;;32.38;52.40;99369.58;104463;1257;72552;-61
2023/06/23 10:25:09;;;;;;;8.00;7.40;;;;;;;32.39;51.48;99365.98;104435;1259;59808;-62
2023/06/23 10:27:40;;;;;;;8.80;7.10;;;;;;;32.35;51.78;99373.49;104636;1254;59750;-61
2023/06/23 10:30:10;;;;;;;7.80;7.30;;;;;;;32.41;52.84;99368.81;104594;1260;73279;-62
2023/06/23 10:32:38;;;;;;;7.50;6.80;;;;;;;32.38;50.96;99370.63;104743;1259;69204;-62
2023/06/23 10:35:08;;;;;;;8.00;7.30;;;;;;;32.37;51.57;99372.10;104751;1260;72517;-62
2023/06/23 10:37:38;;;;;;;9.00;7.20;;;;;;;32.32;52.81;99371.03;104423;1255;59909;-62
2023/06/23 10:40:18;;;;;;;7.90;6.90;;;;;;;32.33;53.09;99365.59;104477;1254;59697;-63
2023/06/23 10:42:48;;;;;;;7.10;6.60;;;;;;;32.45;53.26;99366.84;104351;1258;72892;-64
2023/06/23 10:45:16;;;;;;;7.40;6.90;;;;;;;32.57;52.62;99367.36;104609;1264;70041;-63
2023/06/23 10:47:44;;;;;;;6.60;6.20;;;;;;;32.68;51.78;99363.71;107438;1254;72399;-64
2023/06/23 10:50:12;;;;;;;8.00;7.30;;;;;;;32.72;51.45;99367.10;107455;1256;59805;-63
2023/06/23 10:52:42;;;;;;;7.70;7.20;;;;;;;32.86;49.71;99369.79;104496;1261;59838;-64
2023/06/23 10:55:36;;;;;;;7.60;6.80;;;;;;;32.91;48.63;99362.68;104437;1259;73495;-61
2023/06/23 10:58:08;;;;;;;7.40;6.90;;;;;;;32.87;48.28;99364.96;104698;1254;69788;-63
2023/06/23 11:00:36;;;;;;;7.00;6.40;;;;;;;32.79;49.29;99363.45;104692;1259;72374;-63
2023/06/23 11:03:10;;;;;;;7.40;6.80;;;;;;;32.72;49.75;99367.66;104551;1260;59772;-61
2023/06/23 11:05:42;;;;;;;6.70;6.20;;;;;;;32.85;50.93;99366.81;104519;1259;60064;-65
2023/06/23 11:08:12;;;;;;;6.50;5.90;;;;;;;32.93;49.48;99366.68;104331;1260;72780;-64
2023/06/23 11:10:47;;;;;;;8.90;6.70;;;;;;;32.94;49.73;99364.63;104655;1259;69126;-63
2023/06/23 11:13:15;;;;;;;6.50;5.90;;;;;;;32.69;48.98;99359.60;104472;1276;73876;-66
2023/06/23 11:15:58;;;;;;;7.10;6.50;;;;;;;32.40;50.72;99358.11;104447;1262;59749;-63
2023/06/23 11:18:26;;;;;;;7.40;6.80;;;;;;;32.26;53.24;99359.11;104435;1259;59774;-62
2023/06/23 11:20:54;;;;;;;7.00;6.50;;;;;;;32.21;55.36;99362.81;104561;1256;73102;-65
2023/06/23 11:23:22;;;;;;;8.30;6.30;;;;;;;32.17;55.03;99361.10;104643;1254;71813;-62
2023/06/23 11:25:51;;;;;;;7.00;6.00;;;;;;;32.03;54.71;99361.46;105056;1256;72362;-64
2023/06/23 11:28:38;;;;;;;6.90;6.30;;;;;;;31.92;55.46;99361.80;104827;1254;59710;-63
2023/06/23 11:31:13;;;;;;;6.80;5.90;;;;;;;31.87;55.77;99359.55;104254;1259;59417;-64
2023/06/23 11:33:42;;;;;;;7.00;6.40;;;;;;;31.89;57.98;99353.11;104493;1260;73253;-64
2023/06/23 11:36:13;;;;;;;6.70;6.10;;;;;;;31.88;57.83;99353.02;107175;1254;69424;-65